This is the latest recevied weather packets stored in our database for station/object JF2ZGN-13. If no packets are shown the sender has not sent any weather packets the latest 10 day(s).
| Time | Temp. | Humidity | Pressure | Rain* | Wind** | Luminosity | Snow |
|---|---|---|---|---|---|---|---|
| 1787388185 | 22.22° C | 80% | 912.1 hPa | 0 mm | - | - | - |
| 1787387585 | 22.78° C | 78% | 912 hPa | 0 mm | - | - | - |
| 1787386984 | 22.78° C | 77% | 911.9 hPa | 0 mm | - | - | - |
| 1787386384 | 23.33° C | 75% | 912.1 hPa | 0 mm | - | - | - |
| 1787385784 | 23.89° C | 72% | 912.1 hPa | 0 mm | - | - | - |
| 1787385183 | 24.44° C | 73% | 912 hPa | 0 mm | - | - | - |
| 1787384583 | 25° C | 72% | 912.1 hPa | 0 mm | - | - | - |
| 1787383982 | 25° C | 72% | 912 hPa | 0 mm | - | - | - |
| 1787383382 | 25° C | 70% | 912 hPa | 0 mm | - | - | - |
| 1787382781 | 25.56° C | 68% | 911.9 hPa | 0 mm | - | - | - |
| 1787382181 | 25.56° C | 70% | 911.9 hPa | 0 mm | - | - | - |
| 1787381580 | 25.56° C | 68% | 911.8 hPa | 0 mm | - | - | - |
| 1787380980 | 26.11° C | 68% | 911.8 hPa | 0 mm | - | - | - |
| 1787380379 | 26.11° C | 68% | 911.7 hPa | 0 mm | - | - | - |
| 1787379780 | 26.11° C | 68% | 911.6 hPa | 0 mm | - | - | - |
| 1787379177 | 25.56° C | 73% | 911.7 hPa | 0 mm | - | - | - |
| 1787378577 | 25° C | 72% | 911.6 hPa | 0 mm | - | - | - |
| 1787377976 | 25.56° C | 71% | 911.6 hPa | 0 mm | - | - | - |
| 1787377376 | 25.56° C | 73% | 911.6 hPa | 0 mm | - | - | - |
| 1787376776 | 25° C | 73% | 911.7 hPa | 0 mm | - | - | - |
| 1787376176 | 24.44° C | 73% | 911.7 hPa | 0 mm | - | - | - |
| 1787375575 | 25° C | 73% | 911.9 hPa | 0 mm | - | - | - |
| 1787374975 | 25° C | 75% | 911.9 hPa | 0 mm | - | - | - |
| 1787374374 | 24.44° C | 78% | 911.5 hPa | 0 mm | - | - | - |
| 1787373773 | 23.89° C | 79% | 911.9 hPa | 0 mm | - | - | - |
* Rain since midnight (hover to see other rain measurements)
** Current wind speed in m/s (hover to see current wind gust speed)